Time;durP1;ratioP1;P1;durP2;ratioP2;P2;SDS_P1;SDS_P2;PMS_P1;PMS_P2;Temp;Humidity;BMP_temperature;BMP_pressure;BME280_temperature;BME280_humidity;BME280_pressure;Samples;Min_cycle;Max_cycle;Signal;HPM_P1;HPM_P2
2021/08/23 00:00:15;;;;;;;2.55;1.73;;;14.30;91.60;;;;;;4938053;29;20027;-84
2021/08/23 00:02:42;;;;;;;5.03;2.22;;;14.30;91.90;;;;;;4937559;29;20034;-82
2021/08/23 00:05:08;;;;;;;2.75;1.67;;;14.30;91.90;;;;;;4926249;29;20104;-83
2021/08/23 00:07:34;;;;;;;5.55;2.33;;;14.20;92.00;;;;;;4937108;28;20483;-83
2021/08/23 00:09:59;;;;;;;2.75;1.63;;;14.20;92.00;;;;;;4934036;29;20155;-82
2021/08/23 00:12:27;;;;;;;3.80;1.80;;;14.10;92.20;;;;;;4944784;28;20043;-83
2021/08/23 00:14:53;;;;;;;3.45;2.05;;;14.10;92.20;;;;;;4934994;28;20226;-83
2021/08/23 00:17:19;;;;;;;3.92;1.95;;;14.00;92.30;;;;;;4947133;28;20063;-83
2021/08/23 00:19:45;;;;;;;4.85;1.70;;;14.10;92.60;;;;;;4944376;28;20161;-83
2021/08/23 00:22:30;;;;;;;6.60;2.38;;;14.10;92.70;;;;;;4940792;28;20114;-83
2021/08/23 00:24:57;;;;;;;2.42;1.88;;;14.10;92.70;;;;;;4963108;28;20019;-84
2021/08/23 00:27:24;;;;;;;4.45;1.77;;;14.10;92.60;;;;;;4950181;28;20029;-83
2021/08/23 00:29:49;;;;;;;2.85;2.15;;;14.20;92.70;;;;;;4949145;28;20031;-83
2021/08/23 00:32:16;;;;;;;3.05;2.00;;;14.20;92.70;;;;;;4953359;28;20039;-83
2021/08/23 00:34:41;;;;;;;6.60;2.22;;;14.20;93.10;;;;;;4956047;28;20023;-84
2021/08/23 00:37:08;;;;;;;3.28;2.17;;;14.20;93.10;;;;;;4957442;28;20020;-83
2021/08/23 00:39:35;;;;;;;3.08;2.25;;;14.20;93.00;;;;;;4950541;28;20023;-83
2021/08/23 00:42:02;;;;;;;2.72;2.08;;;14.20;93.10;;;;;;4956203;28;20020;-83
2021/08/23 00:44:28;;;;;;;3.72;2.33;;;14.20;93.20;;;;;;4963957;28;20023;-83
2021/08/23 00:46:55;;;;;;;5.75;2.08;;;14.30;93.20;;;;;;4965487;28;20415;-83
2021/08/23 00:49:20;;;;;;;3.95;2.20;;;14.30;93.10;;;;;;4962493;28;20069;-83
2021/08/23 00:51:46;;;;;;;2.63;2.00;;;14.30;93.00;;;;;;4950374;28;20059;-83
2021/08/23 00:54:12;;;;;;;3.40;2.40;;;14.30;93.20;;;;;;4945699;28;20031;-83
2021/08/23 00:56:38;;;;;;;3.33;2.35;;;14.30;93.30;;;;;;4952081;28;20050;-83
2021/08/23 00:59:08;;;;;;;4.25;2.33;;;14.40;93.30;;;;;;4941386;28;20034;-83
2021/08/23 01:02:10;;;;;;;3.80;2.60;;;14.40;93.30;;;;;;4966147;28;20043;-82
2021/08/23 01:04:49;;;;;;;4.95;2.50;;;14.40;93.40;;;;;;4937405;28;20134;-83
2021/08/23 01:07:17;;;;;;;3.03;2.53;;;14.50;93.30;;;;;;4945597;28;20103;-82
2021/08/23 01:09:50;;;;;;;7.97;2.53;;;14.50;93.30;;;;;;4950134;28;20460;-82
2021/08/23 01:12:16;;;;;;;3.08;2.08;;;14.50;93.40;;;;;;4957704;28;20118;-83
2021/08/23 01:14:42;;;;;;;4.93;2.30;;;14.50;93.30;;;;;;4955762;28;20127;-83
2021/08/23 01:17:08;;;;;;;4.30;2.58;;;14.50;93.30;;;;;;4940143;28;20054;-83
2021/08/23 01:19:37;;;;;;;3.42;2.50;;;14.50;93.30;;;;;;4948807;28;20479;-83
2021/08/23 01:22:04;;;;;;;4.05;2.50;;;14.60;93.30;;;;;;4941426;28;20510;-83
2021/08/23 01:24:33;;;;;;;3.85;2.67;;;14.50;93.20;;;;;;4941605;28;20023;-83
2021/08/23 01:27:03;;;;;;;4.22;2.20;;;14.60;93.30;;;;;;4943148;28;20026;-83
2021/08/23 01:29:53;;;;;;;2.95;2.28;;;14.60;93.30;;;;;;4956101;28;20030;-83
2021/08/23 01:32:22;;;;;;;5.38;2.50;;;14.60;93.40;;;;;;4947760;28;20035;-83
2021/08/23 01:34:49;;;;;;;5.05;2.30;;;14.60;93.30;;;;;;4944956;28;20035;-83
2021/08/23 01:37:19;;;;;;;3.40;2.13;;;14.60;93.20;;;;;;4961114;28;20035;-84
2021/08/23 01:39:45;;;;;;;2.50;2.20;;;14.70;93.30;;;;;;4954395;28;20119;-83
2021/08/23 01:42:11;;;;;;;2.47;2.25;;;14.70;93.10;;;;;;4945284;28;20019;-83
2021/08/23 01:44:37;;;;;;;4.88;2.55;;;14.70;93.00;;;;;;4942801;28;20027;-83
2021/08/23 01:47:03;;;;;;;3.85;2.20;;;14.70;93.20;;;;;;4941097;28;20720;-83
2021/08/23 01:49:29;;;;;;;5.05;2.20;;;14.70;93.20;;;;;;4965861;28;20413;-83
2021/08/23 01:51:55;;;;;;;6.78;2.50;;;14.70;93.00;;;;;;4960689;28;20957;-83
2021/08/23 01:54:21;;;;;;;3.50;2.25;;;14.80;93.10;;;;;;4960163;28;20046;-84
2021/08/23 01:56:47;;;;;;;3.83;2.28;;;14.80;93.10;;;;;;4941110;28;20043;-83
2021/08/23 01:59:13;;;;;;;4.68;2.40;;;14.80;93.10;;;;;;4960805;28;20040;-83
2021/08/23 02:01:39;;;;;;;3.15;2.10;;;14.90;93.10;;;;;;4940206;28;20038;-83
2021/08/23 02:04:05;;;;;;;5.10;2.20;;;14.90;93.10;;;;;;4961082;28;20027;-83
2021/08/23 02:06:31;;;;;;;5.00;2.40;;;14.90;93.00;;;;;;4946028;28;20090;-83
2021/08/23 02:08:58;;;;;;;4.88;2.60;;;14.90;92.90;;;;;;4951663;28;20040;-83
2021/08/23 02:11:24;;;;;;;2.85;2.28;;;14.90;92.90;;;;;;4942217;28;20035;-83
2021/08/23 02:13:51;;;;;;;4.88;2.05;;;14.90;93.10;;;;;;4948672;28;20023;-83
2021/08/23 02:16:16;;;;;;;3.58;2.63;;;14.90;93.20;;;;;;4957571;28;20560;-83
2021/08/23 02:18:42;;;;;;;3.28;2.10;;;14.90;93.30;;;;;;4958016;28;20241;-83
2021/08/23 02:21:08;;;;;;;3.00;2.30;;;14.90;93.20;;;;;;4950313;28;20693;-83
2021/08/23 02:23:34;;;;;;;4.35;2.83;;;14.90;93.20;;;;;;4953603;28;20026;-83
2021/08/23 02:26:00;;;;;;;2.60;1.95;;;14.90;93.10;;;;;;4952265;29;20031;-82
2021/08/23 02:28:26;;;;;;;4.70;2.50;;;14.90;93.20;;;;;;4959496;28;20049;-83
2021/08/23 02:30:51;;;;;;;2.90;2.05;;;14.90;93.20;;;;;;4966465;28;20039;-83
2021/08/23 02:33:17;;;;;;;2.22;2.03;;;14.90;93.30;;;;;;4947438;28;20040;-83
2021/08/23 02:35:43;;;;;;;4.10;1.88;;;14.90;93.20;;;;;;4956302;28;20059;-83
2021/08/23 02:38:08;;;;;;;4.80;2.13;;;14.90;93.20;;;;;;4949408;28;20031;-83
2021/08/23 02:40:35;;;;;;;2.92;2.08;;;14.90;93.30;;;;;;4953216;28;20558;-83
2021/08/23 02:43:01;;;;;;;2.13;1.95;;;14.90;93.10;;;;;;4958249;28;20515;-83
2021/08/23 02:45:27;;;;;;;3.22;2.25;;;14.90;93.20;;;;;;4966994;28;20024;-83
2021/08/23 02:47:53;;;;;;;2.42;2.03;;;14.80;93.30;;;;;;4942607;28;20028;-83
2021/08/23 02:50:18;;;;;;;4.97;2.40;;;14.90;93.30;;;;;;4946429;28;20114;-83
2021/08/23 02:52:44;;;;;;;2.13;1.90;;;14.80;93.40;;;;;;4965294;28;20027;-83
2021/08/23 02:55:10;;;;;;;3.22;2.08;;;14.80;93.30;;;;;;4947674;28;20043;-83
2021/08/23 02:57:35;;;;;;;3.05;2.22;;;14.80;93.30;;;;;;4955945;28;20102;-83
2021/08/23 03:00:04;;;;;;;2.35;1.90;;;14.80;93.20;;;;;;4946978;28;20042;-83
2021/08/23 03:02:30;;;;;;;4.60;2.78;;;14.80;93.10;;;;;;4965684;28;20028;-82
2021/08/23 03:04:56;;;;;;;4.25;2.17;;;14.90;93.00;;;;;;4964751;28;20515;-82
2021/08/23 03:07:21;;;;;;;3.95;2.10;;;14.90;93.00;;;;;;4962963;28;20476;-82
2021/08/23 03:09:47;;;;;;;5.93;2.30;;;14.90;93.00;;;;;;4942436;28;20159;-83
2021/08/23 03:12:13;;;;;;;2.83;2.10;;;14.90;93.00;;;;;;4943896;28;20058;-83
2021/08/23 03:14:38;;;;;;;3.33;2.20;;;14.90;93.00;;;;;;4952018;28;20054;-83
2021/08/23 03:17:04;;;;;;;5.50;2.45;;;14.80;93.30;;;;;;4935292;29;20027;-83
2021/08/23 03:19:30;;;;;;;3.33;2.33;;;14.80;93.30;;;;;;4923909;28;20035;-83
2021/08/23 03:21:56;;;;;;;5.75;2.67;;;14.80;93.30;;;;;;4942532;28;20098;-82
2021/08/23 03:24:21;;;;;;;2.72;2.42;;;14.80;93.20;;;;;;4932538;28;20381;-82
2021/08/23 03:26:47;;;;;;;3.40;2.10;;;14.80;93.20;;;;;;4949659;28;20035;-82
2021/08/23 03:29:13;;;;;;;2.95;2.45;;;14.80;93.10;;;;;;4936326;29;20036;-82
2021/08/23 03:31:42;;;;;;;2.45;2.20;;;14.80;93.10;;;;;;4927836;29;20059;-82
2021/08/23 03:34:12;;;;;;;3.05;2.03;;;14.80;93.10;;;;;;4943305;28;20038;-82
2021/08/23 03:36:41;;;;;;;3.80;2.17;;;14.90;93.00;;;;;;4941158;28;20407;-82
2021/08/23 03:39:07;;;;;;;3.03;2.05;;;14.90;93.00;;;;;;4937343;29;20392;-82
2021/08/23 03:41:34;;;;;;;3.58;1.98;;;14.90;92.90;;;;;;4948572;28;20045;-83
2021/08/23 03:44:00;;;;;;;5.28;2.70;;;15.00;92.90;;;;;;4948257;28;20058;-83
2021/08/23 03:46:28;;;;;;;2.50;1.80;;;15.00;92.80;;;;;;4930602;29;20055;-83
2021/08/23 03:48:54;;;;;;;2.78;1.80;;;14.90;92.90;;;;;;4935292;29;20632;-83
2021/08/23 03:51:20;;;;;;;3.63;2.13;;;14.90;92.80;;;;;;4940471;29;20051;-83
2021/08/23 03:53:46;;;;;;;3.58;2.22;;;14.90;92.90;;;;;;4927016;29;20039;-83
2021/08/23 03:56:12;;;;;;;3.08;2.20;;;14.80;92.70;;;;;;4935707;29;20066;-83
2021/08/23 03:58:37;;;;;;;4.20;2.38;;;14.80;92.60;;;;;;4940402;29;20031;-83
2021/08/23 04:01:03;;;;;;;2.70;2.15;;;14.80;92.70;;;;;;4943070;28;20130;-83
2021/08/23 04:03:32;;;;;;;4.40;2.28;;;14.80;92.90;;;;;;4931867;29;20035;-83
2021/08/23 04:05:57;;;;;;;2.63;2.00;;;14.80;92.80;;;;;;4929512;28;20036;-83
2021/08/23 04:08:23;;;;;;;2.42;2.00;;;14.90;92.70;;;;;;4950584;28;20465;-83
2021/08/23 04:10:48;;;;;;;2.65;2.22;;;14.90;92.70;;;;;;4946700;28;20391;-83
2021/08/23 04:13:15;;;;;;;4.35;2.00;;;14.80;92.20;;;;;;4949445;28;20042;-83
2021/08/23 04:15:48;;;;;;;3.40;1.95;;;14.80;92.50;;;;;;4935758;28;20083;-83
2021/08/23 04:18:14;;;;;;;3.45;2.15;;;14.80;92.40;;;;;;4945750;28;20496;-82
2021/08/23 04:20:40;;;;;;;3.03;1.90;;;14.80;92.30;;;;;;4956698;28;20056;-83
2021/08/23 04:23:06;;;;;;;2.85;2.00;;;14.80;92.30;;;;;;4964032;28;20054;-84
2021/08/23 04:25:32;;;;;;;2.60;2.03;;;14.80;92.20;;;;;;4961436;28;20028;-83
2021/08/23 04:27:58;;;;;;;3.50;2.15;;;14.80;92.30;;;;;;4947405;28;20062;-83
2021/08/23 04:30:23;;;;;;;2.30;1.70;;;14.80;92.30;;;;;;4962727;28;20035;-82
2021/08/23 04:32:52;;;;;;;3.00;2.03;;;14.80;92.30;;;;;;4949459;28;20176;-82
2021/08/23 04:35:20;;;;;;;5.47;2.38;;;14.80;92.20;;;;;;4946585;28;20054;-83
2021/08/23 04:37:45;;;;;;;2.70;1.90;;;14.80;92.20;;;;;;4947423;28;20046;-82
2021/08/23 04:40:11;;;;;;;2.90;2.10;;;14.80;92.20;;;;;;4941935;28;20044;-82
2021/08/23 04:42:37;;;;;;;3.05;2.05;;;14.70;92.30;;;;;;4946304;28;20024;-82
2021/08/23 04:45:03;;;;;;;3.40;2.00;;;14.70;92.30;;;;;;4968328;28;20031;-83
2021/08/23 04:47:30;;;;;;;3.00;2.33;;;14.80;92.30;;;;;;4950464;28;20500;-83
2021/08/23 04:49:55;;;;;;;2.25;2.00;;;14.80;92.30;;;;;;4951840;28;20043;-83
2021/08/23 04:52:22;;;;;;;4.07;2.58;;;14.70;92.30;;;;;;4953757;28;20019;-82
2021/08/23 04:54:49;;;;;;;4.05;2.47;;;14.80;92.20;;;;;;4970664;28;20020;-82
2021/08/23 04:57:16;;;;;;;2.75;2.20;;;14.80;92.30;;;;;;4957792;28;20514;-82
2021/08/23 04:59:42;;;;;;;3.55;1.98;;;14.80;92.10;;;;;;4969395;28;20019;-82
2021/08/23 05:02:08;;;;;;;4.80;2.55;;;14.80;92.20;;;;;;4954663;28;20046;-83
2021/08/23 05:04:33;;;;;;;4.95;2.13;;;14.80;92.20;;;;;;4960045;28;20130;-82
2021/08/23 05:07:00;;;;;;;4.18;2.42;;;14.70;92.30;;;;;;4954523;28;20035;-82
2021/08/23 05:09:26;;;;;;;3.38;2.25;;;14.80;92.30;;;;;;4953110;28;20028;-83
2021/08/23 05:11:51;;;;;;;3.15;2.85;;;14.70;92.30;;;;;;4952567;28;20038;-83
2021/08/23 05:14:20;;;;;;;5.32;2.08;;;14.70;92.70;;;;;;4958914;28;20128;-82
2021/08/23 05:16:46;;;;;;;4.40;2.33;;;14.70;92.60;;;;;;4951768;28;20093;-82
2021/08/23 05:19:11;;;;;;;3.88;2.38;;;14.70;92.70;;;;;;4947121;28;20114;-83
2021/08/23 05:21:37;;;;;;;4.10;1.98;;;14.70;93.10;;;;;;4950786;28;20033;-82
2021/08/23 05:24:03;;;;;;;4.65;2.58;;;14.70;92.80;;;;;;4948459;28;20062;-84
2021/08/23 05:26:29;;;;;;;2.78;2.10;;;14.70;92.90;;;;;;4937849;28;20078;-83
2021/08/23 05:28:54;;;;;;;3.03;2.20;;;14.70;93.10;;;;;;4953723;28;20046;-84
2021/08/23 05:31:22;;;;;;;4.32;2.50;;;14.60;93.00;;;;;;4937920;28;20040;-84
2021/08/23 05:33:50;;;;;;;4.63;2.17;;;14.60;93.00;;;;;;4944828;28;20502;-82
2021/08/23 05:36:15;;;;;;;4.50;2.63;;;14.60;93.30;;;;;;4949532;28;20052;-82
2021/08/23 05:38:41;;;;;;;4.75;2.25;;;14.60;93.50;;;;;;4949210;28;20034;-83
2021/08/23 05:41:07;;;;;;;5.10;2.90;;;14.60;93.30;;;;;;4945678;28;20046;-83
2021/08/23 05:43:32;;;;;;;4.53;2.28;;;14.70;93.40;;;;;;4944024;28;20546;-83
2021/08/23 05:46:00;;;;;;;4.45;2.83;;;14.70;93.50;;;;;;4926141;29;20023;-83
2021/08/23 05:48:26;;;;;;;6.63;2.47;;;14.70;93.20;;;;;;4928335;28;20088;-83
2021/08/23 05:50:52;;;;;;;2.75;2.20;;;14.80;93.30;;;;;;4945887;28;20043;-83
2021/08/23 05:53:18;;;;;;;4.13;2.42;;;14.70;93.30;;;;;;4933825;29;20034;-82
2021/08/23 05:55:45;;;;;;;3.50;2.20;;;14.80;93.50;;;;;;4932242;28;20038;-82
2021/08/23 05:58:11;;;;;;;4.43;2.25;;;14.80;93.20;;;;;;4947185;28;20031;-82
2021/08/23 06:00:37;;;;;;;6.30;2.50;;;14.80;93.20;;;;;;4946623;28;20046;-83
2021/08/23 06:03:03;;;;;;;4.20;2.22;;;14.80;93.00;;;;;;4928698;29;20035;-84
2021/08/23 06:05:29;;;;;;;4.82;2.35;;;14.90;93.30;;;;;;4923153;29;20063;-83
2021/08/23 06:07:54;;;;;;;3.75;2.50;;;14.80;93.10;;;;;;4936985;28;20036;-83
2021/08/23 06:10:20;;;;;;;3.55;2.15;;;14.90;93.30;;;;;;4928589;29;20054;-83
2021/08/23 06:12:46;;;;;;;3.72;2.15;;;14.90;93.40;;;;;;4928922;28;20484;-84
2021/08/23 06:15:12;;;;;;;3.83;2.20;;;14.90;93.40;;;;;;4947858;28;20453;-84
2021/08/23 06:17:38;;;;;;;3.35;2.22;;;14.90;93.30;;;;;;4934908;28;20034;-84
2021/08/23 06:20:04;;;;;;;2.50;2.20;;;14.90;93.50;;;;;;4927111;29;20035;-84
2021/08/23 06:22:32;;;;;;;4.22;2.40;;;14.90;93.50;;;;;;4927404;29;20131;-83
2021/08/23 06:24:57;;;;;;;3.25;2.17;;;14.90;93.50;;;;;;4938911;28;20028;-83
2021/08/23 06:27:23;;;;;;;4.90;2.30;;;14.90;93.50;;;;;;4945721;28;20502;-83
2021/08/23 06:29:49;;;;;;;4.32;2.17;;;15.00;93.50;;;;;;4938852;28;20038;-83
2021/08/23 06:32:14;;;;;;;3.00;2.15;;;15.00;93.80;;;;;;4950193;28;20147;-83
2021/08/23 06:34:40;;;;;;;3.80;2.60;;;15.00;93.70;;;;;;4939494;28;20093;-83
2021/08/23 06:37:06;;;;;;;5.40;2.90;;;15.00;93.70;;;;;;4945734;28;20069;-83
2021/08/23 06:39:31;;;;;;;3.08;2.47;;;15.00;93.90;;;;;;4923902;29;20079;-83
2021/08/23 06:41:57;;;;;;;4.78;2.70;;;15.00;93.90;;;;;;4945235;28;20484;-83
2021/08/23 06:44:23;;;;;;;3.30;2.60;;;15.00;93.60;;;;;;4936421;28;20031;-83
2021/08/23 06:46:48;;;;;;;4.63;2.53;;;15.10;94.00;;;;;;4929763;28;20055;-83
2021/08/23 06:49:14;;;;;;;3.72;2.50;;;15.10;93.80;;;;;;4942106;28;20492;-83
2021/08/23 06:51:40;;;;;;;4.10;2.60;;;15.10;93.70;;;;;;4938864;29;20373;-83
2021/08/23 06:54:06;;;;;;;3.83;2.28;;;15.00;93.50;;;;;;4929238;28;20022;-83
2021/08/23 06:56:31;;;;;;;4.10;2.72;;;15.10;93.50;;;;;;4942221;28;20401;-84
2021/08/23 06:58:57;;;;;;;3.88;2.30;;;15.10;93.70;;;;;;4945643;29;20036;-84
2021/08/23 07:01:26;;;;;;;3.67;2.67;;;15.10;93.80;;;;;;4947658;28;20074;-84
2021/08/23 07:03:53;;;;;;;3.88;2.80;;;15.20;94.20;;;;;;4948783;28;20067;-84
2021/08/23 07:06:19;;;;;;;3.33;2.30;;;15.20;93.60;;;;;;4938159;28;20038;-83
2021/08/23 07:08:45;;;;;;;4.13;2.50;;;15.20;93.80;;;;;;4953311;28;20464;-84
2021/08/23 07:11:11;;;;;;;4.95;2.92;;;15.20;93.90;;;;;;4936237;29;20115;-83
2021/08/23 07:13:38;;;;;;;5.15;2.40;;;15.30;93.90;;;;;;4951079;28;20027;-83
2021/08/23 07:16:05;;;;;;;4.90;2.55;;;15.40;94.00;;;;;;4947200;28;20412;-83
2021/08/23 07:18:31;;;;;;;4.67;2.50;;;15.30;93.00;;;;;;4957466;28;20031;-84
2021/08/23 07:20:57;;;;;;;2.92;2.47;;;15.30;93.40;;;;;;4941867;28;20497;-84
2021/08/23 07:23:23;;;;;;;5.30;3.22;;;15.30;93.50;;;;;;4958761;28;20066;-84
2021/08/23 07:25:49;;;;;;;3.17;2.50;;;15.30;93.20;;;;;;4941300;28;20430;-84
2021/08/23 07:28:14;;;;;;;3.60;2.40;;;15.30;93.20;;;;;;4961408;28;20026;-82
2021/08/23 07:30:41;;;;;;;4.32;2.80;;;15.30;93.30;;;;;;4946479;28;20502;-83
2021/08/23 07:33:07;;;;;;;4.32;3.20;;;15.30;93.50;;;;;;4963276;28;20473;-83
2021/08/23 07:35:32;;;;;;;3.03;2.40;;;15.20;93.60;;;;;;4947436;28;20102;-82
2021/08/23 07:37:58;;;;;;;4.90;2.20;;;15.20;93.50;;;;;;4944030;28;20038;-82
2021/08/23 07:40:24;;;;;;;4.45;2.40;;;15.20;93.60;;;;;;4956300;28;20134;-82
2021/08/23 07:42:50;;;;;;;4.43;2.42;;;15.30;93.60;;;;;;4946019;28;20028;-82
2021/08/23 07:45:17;;;;;;;4.20;3.08;;;15.30;93.80;;;;;;4947316;28;20495;-82
2021/08/23 07:47:44;;;;;;;4.50;2.50;;;15.40;93.60;;;;;;4948020;28;20024;-83
2021/08/23 07:50:11;;;;;;;7.82;2.88;;;15.40;93.80;;;;;;4942408;28;20058;-83
2021/08/23 07:52:38;;;;;;;3.85;2.40;;;15.50;93.70;;;;;;4945878;28;20015;-83
2021/08/23 07:55:05;;;;;;;3.40;2.30;;;15.60;94.00;;;;;;4944069;28;20479;-83
2021/08/23 07:57:31;;;;;;;3.65;2.53;;;15.60;93.80;;;;;;4941244;28;20027;-83
2021/08/23 07:59:56;;;;;;;3.75;2.78;;;15.60;93.50;;;;;;4946421;28;21325;-83
2021/08/23 08:02:22;;;;;;;3.22;2.38;;;15.60;93.80;;;;;;4951806;28;20049;-83
2021/08/23 08:04:49;;;;;;;6.40;2.40;;;15.60;93.40;;;;;;4960791;28;20113;-83
2021/08/23 08:07:16;;;;;;;4.75;2.42;;;15.60;93.10;;;;;;4965928;28;20027;-83
2021/08/23 08:09:42;;;;;;;6.97;3.08;;;15.50;92.90;;;;;;4967303;28;20484;-83
2021/08/23 08:12:08;;;;;;;3.33;2.60;;;15.50;93.10;;;;;;4945126;28;20038;-82
2021/08/23 08:14:34;;;;;;;7.22;2.58;;;15.50;92.90;;;;;;4963830;28;20028;-83
2021/08/23 08:16:59;;;;;;;4.45;2.50;;;15.50;93.20;;;;;;4921210;29;20095;-83
2021/08/23 08:19:25;;;;;;;2.88;2.30;;;15.50;93.30;;;;;;4947332;28;20568;-83
2021/08/23 08:21:50;;;;;;;5.35;2.70;;;15.40;93.20;;;;;;4945461;28;20118;-82
2021/08/23 08:24:17;;;;;;;3.25;2.72;;;15.50;93.40;;;;;;4940302;28;20066;-83
2021/08/23 08:26:42;;;;;;;2.90;2.60;;;15.40;93.40;;;;;;4931938;29;20047;-83
2021/08/23 08:29:08;;;;;;;7.22;2.20;;;15.50;93.10;;;;;;4950370;28;20090;-83
2021/08/23 08:31:33;;;;;;;2.83;2.47;;;15.60;93.40;;;;;;4949124;28;20039;-82
2021/08/23 08:33:59;;;;;;;5.82;2.70;;;15.60;93.70;;;;;;4956056;28;20034;-84
2021/08/23 08:36:25;;;;;;;3.28;2.30;;;15.60;93.50;;;;;;4939517;29;20027;-84
2021/08/23 08:38:51;;;;;;;5.55;2.70;;;15.60;93.10;;;;;;4930926;28;20071;-84
2021/08/23 08:41:16;;;;;;;2.70;2.13;;;15.60;93.20;;;;;;4944963;28;20429;-83
2021/08/23 08:43:42;;;;;;;6.07;2.63;;;15.80;93.90;;;;;;4935435;28;20026;-83
2021/08/23 08:46:08;;;;;;;6.57;2.92;;;15.80;93.60;;;;;;4952557;29;20039;-84
2021/08/23 08:48:34;;;;;;;5.80;3.00;;;15.80;93.60;;;;;;4950671;28;20425;-84
2021/08/23 08:51:00;;;;;;;4.45;2.90;;;15.90;93.70;;;;;;4946778;29;20068;-84
2021/08/23 08:53:26;;;;;;;6.93;3.25;;;15.90;94.10;;;;;;4955538;28;20038;-84
2021/08/23 08:55:52;;;;;;;5.95;2.85;;;16.00;93.90;;;;;;4951673;28;20032;-84
2021/08/23 08:58:24;;;;;;;9.57;6.93;;;16.00;93.60;;;;;;4956454;28;20110;-84
2021/08/23 09:00:51;;;;;;;5.00;3.10;;;16.10;93.80;;;;;;4928604;29;20047;-84
2021/08/23 09:03:26;;;;;;;5.82;3.20;;;16.10;93.20;;;;;;4937429;29;20046;-83
2021/08/23 09:06:07;;;;;;;5.47;2.90;;;16.10;93.50;;;;;;4933497;29;20523;-84
2021/08/23 09:08:41;;;;;;;4.95;2.75;;;16.10;92.70;;;;;;4923160;29;20116;-84
2021/08/23 09:11:18;;;;;;;4.82;3.65;;;16.30;93.00;;;;;;4942986;28;20384;-83
2021/08/23 09:14:02;;;;;;;4.30;3.10;;;16.40;93.30;;;;;;4926733;29;20059;-83
2021/08/23 09:16:29;;;;;;;4.18;2.72;;;16.40;93.00;;;;;;4960190;28;20311;-83
2021/08/23 09:18:56;;;;;;;5.38;3.03;;;16.30;92.20;;;;;;4971080;28;20031;-83
2021/08/23 09:21:33;;;;;;;3.55;2.63;;;16.30;91.90;;;;;;4947908;28;20367;-84
2021/08/23 09:23:59;;;;;;;4.97;3.10;;;16.30;92.70;;;;;;4963858;28;20034;-84
2021/08/23 09:26:33;;;;;;;4.97;2.90;;;16.30;92.50;;;;;;4961792;28;20023;-82
2021/08/23 09:29:05;;;;;;;6.72;3.10;;;16.30;92.40;;;;;;4946578;29;20485;-82
2021/08/23 09:31:39;;;;;;;5.03;3.25;;;16.30;91.90;;;;;;4967442;28;20036;-82
2021/08/23 09:34:10;;;;;;;3.30;2.60;;;16.30;92.80;;;;;;4963668;28;20038;-82
2021/08/23 09:36:35;;;;;;;4.95;2.65;;;16.30;91.90;;;;;;4947796;29;20530;-82
2021/08/23 09:39:14;;;;;;;4.53;3.05;;;16.40;92.30;;;;;;4958736;28;20063;-82
2021/08/23 09:41:41;;;;;;;5.13;3.00;;;16.40;92.20;;;;;;4951063;28;20030;-83
2021/08/23 09:44:09;;;;;;;4.03;2.40;;;16.50;92.20;;;;;;4949833;29;20033;-82
2021/08/23 09:46:36;;;;;;;5.35;2.45;;;16.50;92.20;;;;;;4962662;28;20070;-83
2021/08/23 09:49:13;;;;;;;3.67;2.70;;;16.50;92.60;;;;;;4950281;29;20028;-83
2021/08/23 09:51:45;;;;;;;4.30;2.80;;;16.60;91.60;;;;;;4949266;28;20541;-82
2021/08/23 09:54:16;;;;;;;3.90;3.28;;;16.50;91.20;;;;;;4943723;28;20507;-82
2021/08/23 09:56:53;;;;;;;5.72;3.03;;;16.60;91.60;;;;;;4948792;29;20070;-82
2021/08/23 09:59:27;;;;;;;4.18;2.67;;;16.70;93.10;;;;;;4969139;28;20043;-82
2021/08/23 10:01:55;;;;;;;6.07;2.67;;;16.80;91.80;;;;;;4961169;28;20047;-81
2021/08/23 10:04:21;;;;;;;5.57;2.85;;;16.50;90.20;;;;;;4953363;28;20042;-82
2021/08/23 10:06:49;;;;;;;6.15;3.10;;;16.60;92.20;;;;;;4969585;28;20048;-82
2021/08/23 10:09:21;;;;;;;4.22;3.03;;;16.50;91.80;;;;;;4952799;28;20558;-82
2021/08/23 10:11:47;;;;;;;5.10;2.70;;;16.60;91.00;;;;;;4952776;28;20051;-83
2021/08/23 10:14:13;;;;;;;6.10;3.20;;;16.70;90.80;;;;;;4961680;28;20492;-83
2021/08/23 10:16:39;;;;;;;5.32;3.83;;;16.80;90.80;;;;;;4949289;28;20047;-83
2021/08/23 10:19:06;;;;;;;7.93;3.63;;;17.10;92.00;;;;;;4949034;29;20024;-83
2021/08/23 10:21:32;;;;;;;6.18;3.60;;;17.30;91.90;;;;;;4944575;28;20031;-82
2021/08/23 10:23:59;;;;;;;6.13;3.28;;;17.50;90.30;;;;;;4938402;28;20109;-82
2021/08/23 10:26:25;;;;;;;6.75;3.63;;;17.50;88.00;;;;;;4938392;28;20019;-82
2021/08/23 10:28:52;;;;;;;6.85;3.13;;;17.50;88.00;;;;;;4954651;28;20118;-82
2021/08/23 10:31:20;;;;;;;5.03;3.30;;;17.60;89.50;;;;;;4927204;29;20038;-82
2021/08/23 10:33:48;;;;;;;6.10;3.75;;;17.70;90.40;;;;;;4936489;29;20091;-82
2021/08/23 10:36:16;;;;;;;5.10;3.50;;;17.70;90.30;;;;;;4935770;29;20030;-81
2021/08/23 10:38:47;;;;;;;5.07;2.80;;;18.00;90.80;;;;;;4955556;28;20022;-82
2021/08/23 10:41:24;;;;;;;5.93;2.80;;;18.00;85.80;;;;;;4938689;29;20032;-82
2021/08/23 10:43:51;;;;;;;4.35;2.80;;;17.90;87.60;;;;;;4948707;28;20408;-82
2021/08/23 10:46:26;;;;;;;4.85;2.70;;;18.00;87.00;;;;;;4944949;29;20477;-82
2021/08/23 10:48:52;;;;;;;4.80;2.83;;;17.90;84.60;;;;;;4931794;29;20042;-83
2021/08/23 10:51:33;;;;;;;3.58;2.83;;;17.90;85.70;;;;;;4928862;29;20032;-82
2021/08/23 10:54:00;;;;;;;4.40;2.80;;;17.90;85.60;;;;;;4935529;28;20031;-83
2021/08/23 10:56:38;;;;;;;3.30;2.60;;;18.10;86.30;;;;;;4954821;28;20035;-83
2021/08/23 10:59:16;;;;;;;3.47;2.65;;;18.30;86.50;;;;;;4949875;29;20499;-82
2021/08/23 11:01:55;;;;;;;3.63;2.57;;;18.30;86.90;;;;;;4946929;28;20035;-83
2021/08/23 11:04:37;;;;;;;3.92;2.70;;;18.00;82.10;;;;;;4935060;29;20291;-82
2021/08/23 11:07:04;;;;;;;5.13;2.72;;;17.70;82.50;;;;;;4956129;28;20023;-83
2021/08/23 11:09:36;;;;;;;4.47;2.70;;;17.50;85.80;;;;;;4935638;29;20031;-82
2021/08/23 11:12:11;;;;;;;4.88;2.42;;;17.50;85.20;;;;;;4949758;28;20122;-82
2021/08/23 11:14:46;;;;;;;5.25;2.58;;;17.40;87.00;;;;;;4928390;29;20044;-82
2021/08/23 11:17:12;;;;;;;4.47;2.92;;;17.40;85.30;;;;;;4937373;28;20031;-82
2021/08/23 11:19:40;;;;;;;4.95;2.63;;;17.40;85.30;;;;;;4947672;29;20543;-82
2021/08/23 11:22:06;;;;;;;4.40;2.78;;;17.30;87.20;;;;;;4938509;28;20066;-82
2021/08/23 11:24:36;;;;;;;4.20;2.58;;;17.30;86.10;;;;;;4935944;29;20023;-82
2021/08/23 11:27:04;;;;;;;4.00;2.63;;;17.20;87.10;;;;;;4951284;29;20047;-83
2021/08/23 11:29:33;;;;;;;3.30;2.80;;;17.20;88.20;;;;;;4949309;28;20037;-83
2021/08/23 11:32:00;;;;;;;5.25;3.03;;;17.20;88.10;;;;;;4935818;29;20031;-83
2021/08/23 11:34:27;;;;;;;4.38;2.88;;;17.20;89.10;;;;;;4935856;28;20515;-83
2021/08/23 11:36:59;;;;;;;2.50;2.30;;;17.30;89.70;;;;;;4939368;29;20583;-83
2021/08/23 11:39:28;;;;;;;3.20;2.13;;;17.30;88.60;;;;;;4937834;29;20031;-83
2021/08/23 11:42:06;;;;;;;5.70;2.40;;;17.30;88.10;;;;;;4948753;28;20393;-83
2021/08/23 11:44:33;;;;;;;2.97;2.30;;;17.20;87.50;;;;;;4942549;29;20030;-82
2021/08/23 11:47:01;;;;;;;3.53;2.20;;;17.30;86.60;;;;;;4945334;29;20392;-82
2021/08/23 11:49:37;;;;;;;7.50;2.85;;;17.30;87.80;;;;;;4946067;29;20062;-82
2021/08/23 11:52:15;;;;;;;3.95;2.70;;;17.40;88.60;;;;;;4945891;29;20519;-83
2021/08/23 11:54:46;;;;;;;3.13;2.03;;;17.40;87.50;;;;;;4941081;29;20027;-82
2021/08/23 11:57:12;;;;;;;3.70;2.22;;;17.40;86.10;;;;;;4932329;29;20058;-84
2021/08/23 11:59:37;;;;;;;4.47;2.55;;;17.40;85.90;;;;;;4949717;28;20121;-84
2021/08/23 12:02:13;;;;;;;4.22;2.30;;;17.30;87.30;;;;;;4932106;28;20043;-84
2021/08/23 12:04:39;;;;;;;4.65;2.65;;;17.30;86.50;;;;;;4942993;28;20039;-85
2021/08/23 12:07:05;;;;;;;5.30;2.60;;;17.20;87.00;;;;;;4953558;28;20061;-83
2021/08/23 12:09:33;;;;;;;4.30;2.90;;;17.20;88.30;;;;;;4953985;28;20038;-82
2021/08/23 12:12:02;;;;;;;7.35;2.53;;;17.30;89.30;;;;;;4941395;29;20028;-82
2021/08/23 12:14:28;;;;;;;3.10;2.58;;;17.30;89.20;;;;;;4947386;28;20023;-82
2021/08/23 12:16:55;;;;;;;3.78;2.05;;;17.30;88.70;;;;;;4934482;29;20035;-82
2021/08/23 12:19:20;;;;;;;2.22;1.90;;;17.40;86.00;;;;;;4926725;29;20034;-82
2021/08/23 12:21:50;;;;;;;2.22;1.70;;;17.40;84.50;;;;;;4956504;29;20027;-82
2021/08/23 12:24:15;;;;;;;2.53;1.65;;;17.50;83.60;;;;;;4941587;29;20038;-83
2021/08/23 12:26:56;;;;;;;2.05;1.70;;;17.60;84.10;;;;;;4957792;28;20384;-82
2021/08/23 12:29:36;;;;;;;3.13;1.92;;;17.60;82.50;;;;;;4949588;28;20035;-81
2021/08/23 12:32:11;;;;;;;2.35;1.92;;;17.60;84.20;;;;;;4950230;28;20036;-82
2021/08/23 12:34:47;;;;;;;3.15;1.60;;;17.70;84.40;;;;;;4944971;29;20028;-82
2021/08/23 12:37:15;;;;;;;2.60;1.90;;;17.80;82.90;;;;;;4952193;28;20546;-82
2021/08/23 12:39:44;;;;;;;3.40;1.67;;;17.90;83.50;;;;;;4954594;28;20577;-82
2021/08/23 12:42:10;;;;;;;3.50;1.73;;;17.90;83.80;;;;;;4928372;29;20059;-84
2021/08/23 12:44:37;;;;;;;4.22;1.83;;;17.90;82.60;;;;;;4948059;29;20020;-83
2021/08/23 12:47:04;;;;;;;2.38;1.85;;;17.90;85.20;;;;;;4936535;29;20047;-82
2021/08/23 12:49:30;;;;;;;3.22;1.95;;;17.90;83.50;;;;;;4931824;29;20056;-83